Time;durP1;ratioP1;P1;durP2;ratioP2;P2;SDS_P1;SDS_P2;PMS_P1;PMS_P2;Temp;Humidity;BMP_temperature;BMP_pressure;BME280_temperature;BME280_humidity;BME280_pressure;Samples;Min_cycle;Max_cycle;Signal;HPM_P1;HPM_P2
2022/09/21 00:00:38;;;;;;;;;14.33;11.67;;;;;;;;4922058;28;46109;-69
2022/09/21 00:03:04;;;;;;;;;18.00;13.33;;;;;;;;4921974;28;45599;-69
2022/09/21 00:05:29;;;;;;;;;14.33;13.33;;;;;;;;4922175;28;45202;-69
2022/09/21 00:07:58;;;;;;;;;16.67;12.67;;;;;;;;4921950;28;45453;-69
2022/09/21 00:10:23;;;;;;;;;20.33;15.67;;;;;;;;4921834;28;46550;-69
2022/09/21 00:12:48;;;;;;;;;13.33;13.00;;;;;;;;4921793;28;45444;-70
2022/09/21 00:15:16;;;;;;;;;14.67;13.67;;;;;;;;4922175;28;45294;-69
2022/09/21 00:17:41;;;;;;;;;15.67;14.00;;;;;;;;4922056;28;45570;-69
2022/09/21 00:20:07;;;;;;;;;15.33;14.67;;;;;;;;4921627;28;46371;-70
2022/09/21 00:22:32;;;;;;;;;15.00;14.00;;;;;;;;4921740;28;45338;-69
2022/09/21 00:24:58;;;;;;;;;14.33;13.00;;;;;;;;4921828;28;45300;-70
2022/09/21 00:27:28;;;;;;;;;13.33;11.67;;;;;;;;4922011;28;45226;-70
2022/09/21 00:29:54;;;;;;;;;14.00;10.67;;;;;;;;4921740;28;46383;-70
2022/09/21 00:32:20;;;;;;;;;15.67;12.00;;;;;;;;4921341;28;45532;-70
2022/09/21 00:34:45;;;;;;;;;13.67;13.67;;;;;;;;4921830;28;45338;-69
2022/09/21 00:37:10;;;;;;;;;12.33;12.00;;;;;;;;4921939;28;45417;-70
2022/09/21 00:39:35;;;;;;;;;12.00;10.00;;;;;;;;4921440;28;45928;-70
2022/09/21 00:42:01;;;;;;;;;13.33;12.00;;;;;;;;4921533;28;45400;-69
2022/09/21 00:44:28;;;;;;;;;12.33;10.33;;;;;;;;4921425;28;45383;-70
2022/09/21 00:46:55;;;;;;;;;12.00;9.00;;;;;;;;4921607;28;45512;-70
2022/09/21 00:49:21;;;;;;;;;11.00;11.00;;;;;;;;4921264;28;46368;-69
2022/09/21 00:51:48;;;;;;;;;11.33;10.00;;;;;;;;4921223;28;45212;-70
2022/09/21 00:54:18;;;;;;;;;14.33;13.33;;;;;;;;4921578;28;45493;-69
2022/09/21 00:56:44;;;;;;;;;9.33;9.33;;;;;;;;4921445;28;45239;-70
2022/09/21 00:59:11;;;;;;;;;10.00;10.00;;;;;;;;4921038;28;46168;-69
2022/09/21 01:01:37;;;;;;;;;12.33;12.00;;;;;;;;4920809;28;45409;-70
2022/09/21 01:04:02;;;;;;;;;15.33;11.33;;;;;;;;4921129;28;45293;-69
2022/09/21 01:06:27;;;;;;;;;11.67;10.67;;;;;;;;4921288;28;45264;-70
2022/09/21 01:08:54;;;;;;;;;12.33;9.67;;;;;;;;4921037;28;46349;-70
2022/09/21 01:11:20;;;;;;;;;10.33;8.67;;;;;;;;4920904;28;45572;-69
2022/09/21 01:13:48;;;;;;;;;11.00;11.00;;;;;;;;4921272;28;45316;-70
2022/09/21 01:16:20;;;;;;;;;14.67;12.67;;;;;;;;4921299;28;45317;-69
2022/09/21 01:18:46;;;;;;;;;12.67;10.33;;;;;;;;4921000;28;46606;-70
2022/09/21 01:21:14;;;;;;;;;15.33;13.33;;;;;;;;4920812;28;45368;-70
2022/09/21 01:23:48;;;;;;;;;15.33;14.33;;;;;;;;4920551;28;45288;-70
2022/09/21 01:26:31;;;;;;;;;15.00;13.33;;;;;;;;4921067;28;45253;-71
2022/09/21 01:29:06;;;;;;;;;19.00;15.00;;;;;;;;4920853;28;45614;-70
2022/09/21 01:31:40;;;;;;;;;14.33;12.67;;;;;;;;4920754;28;45377;-70
2022/09/21 01:34:14;;;;;;;;;13.33;13.33;;;;;;;;4920687;28;45305;-70
2022/09/21 01:36:41;;;;;;;;;10.00;10.00;;;;;;;;4920847;28;45334;-70
2022/09/21 01:39:09;;;;;;;;;13.00;13.00;;;;;;;;4920795;28;45479;-70
2022/09/21 01:41:35;;;;;;;;;13.67;13.00;;;;;;;;4920391;28;45468;-70
2022/09/21 01:44:07;;;;;;;;;14.00;10.67;;;;;;;;4920486;28;45381;-70
2022/09/21 01:46:34;;;;;;;;;14.00;14.00;;;;;;;;4920865;28;45351;-70
2022/09/21 01:49:03;;;;;;;;;14.00;11.67;;;;;;;;4920247;28;46122;-70
2022/09/21 01:51:30;;;;;;;;;12.00;10.33;;;;;;;;4920439;28;45478;-70
2022/09/21 01:54:00;;;;;;;;;14.00;11.33;;;;;;;;4920818;28;45447;-70
2022/09/21 01:56:37;;;;;;;;;16.67;11.67;;;;;;;;4920451;28;45365;-70
2022/09/21 01:59:06;;;;;;;;;12.00;11.00;;;;;;;;4920242;28;45358;-70
2022/09/21 02:01:35;;;;;;;;;14.00;12.00;;;;;;;;4903219;28;45417;-70
2022/09/21 02:04:03;;;;;;;;;10.67;10.67;;;;;;;;4920356;28;45223;-70
2022/09/21 02:06:29;;;;;;;;;10.00;9.00;;;;;;;;4920616;28;45457;-69
2022/09/21 02:08:54;;;;;;;;;13.00;12.00;;;;;;;;4920270;28;46292;-69
2022/09/21 02:11:20;;;;;;;;;12.33;12.00;;;;;;;;4919848;28;45423;-69
2022/09/21 02:13:47;;;;;;;;;13.33;9.67;;;;;;;;4919562;28;45467;-69
2022/09/21 02:16:25;;;;;;;;;14.33;11.33;;;;;;;;4920379;28;45311;-69
2022/09/21 02:19:11;;;;;;;;;11.00;10.33;;;;;;;;4919824;28;46687;-69
2022/09/21 02:21:45;;;;;;;;;15.00;10.33;;;;;;;;4920016;28;45247;-69
2022/09/21 02:24:22;;;;;;;;;12.33;10.00;;;;;;;;4920018;28;45449;-69
2022/09/21 02:26:52;;;;;;;;;12.33;11.33;;;;;;;;4920219;28;45285;-69
2022/09/21 02:29:37;;;;;;;;;15.67;9.00;;;;;;;;4919820;28;45805;-69
2022/09/21 02:32:13;;;;;;;;;12.00;11.00;;;;;;;;4909164;28;45386;-69
2022/09/21 02:34:44;;;;;;;;;11.67;9.00;;;;;;;;4920020;28;45373;-69
2022/09/21 02:37:15;;;;;;;;;12.00;9.00;;;;;;;;4920094;28;45373;-69
2022/09/21 02:39:54;;;;;;;;;14.67;11.00;;;;;;;;4910786;28;47512;-70
2022/09/21 02:42:25;;;;;;;;;13.67;11.67;;;;;;;;4908747;28;45482;-70
2022/09/21 02:45:14;;;;;;;;;10.00;10.00;;;;;;;;4900663;28;45377;-70
2022/09/21 02:47:47;;;;;;;;;9.67;7.33;;;;;;;;4892903;29;45481;-70
2022/09/21 02:50:16;;;;;;;;;14.67;11.67;;;;;;;;4900764;29;45494;-70
2022/09/21 02:52:42;;;;;;;;;14.67;14.67;;;;;;;;4900594;29;45401;-70
2022/09/21 02:55:08;;;;;;;;;10.33;10.33;;;;;;;;4900578;28;45286;-70
2022/09/21 02:57:35;;;;;;;;;14.00;13.00;;;;;;;;4900907;29;45389;-70
2022/09/21 03:00:00;;;;;;;;;14.33;12.00;;;;;;;;4900437;29;46367;-70
2022/09/21 03:02:34;;;;;;;;;15.33;12.33;;;;;;;;4900615;29;45380;-70
2022/09/21 03:04:59;;;;;;;;;13.00;13.00;;;;;;;;4900687;29;45455;-70
2022/09/21 03:07:25;;;;;;;;;11.00;11.00;;;;;;;;4900722;29;45243;-70
2022/09/21 03:09:50;;;;;;;;;13.00;11.33;;;;;;;;4900490;29;45606;-70
2022/09/21 03:12:15;;;;;;;;;12.00;12.00;;;;;;;;4900283;29;45541;-70
2022/09/21 03:14:40;;;;;;;;;18.33;15.33;;;;;;;;4900549;29;45388;-70
2022/09/21 03:17:05;;;;;;;;;16.33;13.33;;;;;;;;4900730;29;45298;-70
2022/09/21 03:19:31;;;;;;;;;15.33;13.00;;;;;;;;4900154;29;46324;-70
2022/09/21 03:21:56;;;;;;;;;13.67;12.00;;;;;;;;4900543;29;45213;-70
2022/09/21 03:27:05;;;;;;;;;15.67;11.67;;;;;;;;4903842;29;45436;-70
2022/09/21 03:29:31;;;;;;;;;12.33;11.00;;;;;;;;4903252;29;46603;-70
2022/09/21 03:31:56;;;;;;;;;15.33;13.00;;;;;;;;4903579;29;45672;-70
2022/09/21 03:34:21;;;;;;;;;10.33;9.67;;;;;;;;4903611;29;45152;-70
2022/09/21 03:36:47;;;;;;;;;20.00;11.33;;;;;;;;4903681;29;45609;-70
2022/09/21 03:39:12;;;;;;;;;13.67;9.00;;;;;;;;4903248;29;46251;-70
2022/09/21 03:41:38;;;;;;;;;13.00;12.00;;;;;;;;4903432;29;45495;-70
2022/09/21 03:44:03;;;;;;;;;13.00;12.67;;;;;;;;4903150;29;45421;-70
2022/09/21 03:46:28;;;;;;;;;15.67;14.00;;;;;;;;4903354;29;45429;-70
2022/09/21 03:48:54;;;;;;;;;17.00;16.00;;;;;;;;4903316;29;46543;-70
2022/09/21 03:51:19;;;;;;;;;20.33;18.00;;;;;;;;4903293;29;45422;-70
2022/09/21 03:53:44;;;;;;;;;15.67;12.33;;;;;;;;4903374;29;45331;-70
2022/09/21 03:56:09;;;;;;;;;15.00;14.67;;;;;;;;4903237;29;45473;-70
2022/09/21 03:58:34;;;;;;;;;18.00;16.00;;;;;;;;4903015;29;46696;-70
2022/09/21 04:01:01;;;;;;;;;13.67;12.00;;;;;;;;4902624;29;45388;-70
2022/09/21 04:03:26;;;;;;;;;14.33;12.67;;;;;;;;4903000;29;45274;-70
2022/09/21 04:05:51;;;;;;;;;11.00;10.00;;;;;;;;4903338;28;45732;-70
2022/09/21 04:08:17;;;;;;;;;13.67;12.00;;;;;;;;4902849;29;45540;-70
2022/09/21 04:10:42;;;;;;;;;13.67;13.33;;;;;;;;4902731;29;45262;-70
2022/09/21 04:13:08;;;;;;;;;13.33;12.00;;;;;;;;4902839;29;45434;-70
2022/09/21 04:15:33;;;;;;;;;26.67;24.33;;;;;;;;4903251;29;45366;-70
2022/09/21 04:17:58;;;;;;;;;16.33;16.00;;;;;;;;4913334;28;45609;-70
2022/09/21 04:20:24;;;;;;;;;18.33;13.33;;;;;;;;4921659;28;45365;-70
2022/09/21 04:22:50;;;;;;;;;15.00;13.67;;;;;;;;4921650;28;45306;-70
2022/09/21 04:25:15;;;;;;;;;14.67;13.33;;;;;;;;4921896;28;45396;-70
2022/09/21 04:27:40;;;;;;;;;19.33;17.33;;;;;;;;4921291;28;45225;-70
2022/09/21 04:30:06;;;;;;;;;15.00;15.00;;;;;;;;4921780;28;45234;-70
2022/09/21 04:32:31;;;;;;;;;16.67;14.67;;;;;;;;4921547;28;45240;-69
2022/09/21 04:34:57;;;;;;;;;14.00;14.00;;;;;;;;4921912;28;45417;-69
2022/09/21 04:37:22;;;;;;;;;16.33;14.00;;;;;;;;4920143;28;46106;-70
2022/09/21 04:39:47;;;;;;;;;28.33;23.00;;;;;;;;4921434;28;45264;-70
2022/09/21 04:42:12;;;;;;;;;21.00;16.00;;;;;;;;4921621;28;45318;-70
2022/09/21 04:44:37;;;;;;;;;14.33;14.33;;;;;;;;4921421;28;45352;-70
2022/09/21 04:47:03;;;;;;;;;16.33;14.33;;;;;;;;4921400;28;46313;-70
2022/09/21 04:49:28;;;;;;;;;15.00;13.67;;;;;;;;4921457;28;45325;-70
2022/09/21 04:51:53;;;;;;;;;14.00;12.67;;;;;;;;4921559;28;45214;-70
2022/09/21 04:54:18;;;;;;;;;15.00;12.00;;;;;;;;4921755;28;45283;-70
2022/09/21 04:56:44;;;;;;;;;13.67;13.00;;;;;;;;4921189;28;46355;-70
2022/09/21 04:59:09;;;;;;;;;15.00;12.00;;;;;;;;4921230;28;45299;-70
2022/09/21 05:01:34;;;;;;;;;14.33;14.00;;;;;;;;4921207;28;45387;-70
2022/09/21 05:04:02;;;;;;;;;11.67;11.67;;;;;;;;4921230;28;45336;-69
2022/09/21 05:06:28;;;;;;;;;14.00;11.00;;;;;;;;4921110;28;45342;-69
2022/09/21 05:11:37;;;;;;;;;13.67;12.33;;;;;;;;4921282;28;45357;-71
2022/09/21 05:14:03;;;;;;;;;29.00;26.33;;;;;;;;4921179;28;45294;-71
2022/09/21 05:16:29;;;;;;;;;16.33;14.00;;;;;;;;4920578;28;47154;-71
2022/09/21 05:18:54;;;;;;;;;12.33;10.33;;;;;;;;4920885;28;45349;-71
2022/09/21 05:21:20;;;;;;;;;19.00;15.00;;;;;;;;4921010;28;45440;-71
2022/09/21 05:23:45;;;;;;;;;17.00;14.33;;;;;;;;4920779;28;45205;-71
2022/09/21 05:26:10;;;;;;;;;16.00;15.67;;;;;;;;4920961;28;46791;-71
2022/09/21 05:28:36;;;;;;;;;18.00;14.67;;;;;;;;4920674;28;45927;-71
2022/09/21 05:31:19;;;;;;;;;27.00;23.00;;;;;;;;4920681;28;45420;-71
2022/09/21 05:33:50;;;;;;;;;14.00;14.00;;;;;;;;4920306;28;45398;-69
2022/09/21 05:36:15;;;;;;;;;14.33;14.33;;;;;;;;4920351;28;47156;-69
2022/09/21 05:38:41;;;;;;;;;13.00;11.67;;;;;;;;4920413;28;45476;-69
2022/09/21 05:41:07;;;;;;;;;15.33;15.33;;;;;;;;4920679;28;45376;-69
2022/09/21 05:43:32;;;;;;;;;31.67;25.67;;;;;;;;4920385;28;45485;-70
2022/09/21 05:46:08;;;;;;;;;19.33;15.33;;;;;;;;4920204;28;45536;-69
2022/09/21 05:48:40;;;;;;;;;15.67;13.00;;;;;;;;4920374;28;45364;-69
2022/09/21 05:51:11;;;;;;;;;20.67;15.67;;;;;;;;4920477;28;45722;-69
2022/09/21 05:53:57;;;;;;;;;13.67;13.00;;;;;;;;4920576;28;45310;-69
2022/09/21 05:56:23;;;;;;;;;13.00;13.00;;;;;;;;4920162;28;46234;-69
2022/09/21 05:58:51;;;;;;;;;12.33;12.00;;;;;;;;4920270;28;45237;-69
2022/09/21 06:01:28;;;;;;;;;23.67;18.00;;;;;;;;4920538;28;45289;-69
2022/09/21 06:03:54;;;;;;;;;15.00;14.00;;;;;;;;4920448;28;45548;-69
2022/09/21 06:06:20;;;;;;;;;17.67;14.00;;;;;;;;4920037;28;47743;-69
2022/09/21 06:08:45;;;;;;;;;13.33;11.33;;;;;;;;4920044;28;45282;-69
2022/09/21 06:11:10;;;;;;;;;15.00;13.67;;;;;;;;4920236;28;45209;-69
2022/09/21 06:13:36;;;;;;;;;14.67;14.00;;;;;;;;4920505;28;45439;-69
2022/09/21 06:16:02;;;;;;;;;15.67;15.67;;;;;;;;4919931;28;47042;-69
2022/09/21 06:18:27;;;;;;;;;19.67;16.33;;;;;;;;4920029;28;45349;-69
2022/09/21 06:20:52;;;;;;;;;18.67;15.00;;;;;;;;4920007;28;45341;-69
2022/09/21 06:23:18;;;;;;;;;20.00;15.33;;;;;;;;4920138;28;45305;-69
2022/09/21 06:25:43;;;;;;;;;20.33;15.33;;;;;;;;4919719;28;46204;-69
2022/09/21 06:28:09;;;;;;;;;16.33;12.00;;;;;;;;4919955;28;45433;-69
2022/09/21 06:30:35;;;;;;;;;17.00;15.00;;;;;;;;4919985;28;45384;-69
2022/09/21 06:33:00;;;;;;;;;15.00;13.67;;;;;;;;4920176;28;45624;-69
2022/09/21 06:35:27;;;;;;;;;18.00;13.33;;;;;;;;4919670;28;46511;-69
2022/09/21 06:37:56;;;;;;;;;20.67;17.67;;;;;;;;4919841;28;45406;-69
2022/09/21 06:40:21;;;;;;;;;17.67;14.33;;;;;;;;4919914;28;45234;-69
2022/09/21 06:42:46;;;;;;;;;22.33;16.00;;;;;;;;4919910;28;45326;-69
2022/09/21 06:45:11;;;;;;;;;16.00;14.33;;;;;;;;4919541;28;45476;-69
2022/09/21 06:47:37;;;;;;;;;17.67;16.67;;;;;;;;4919186;28;45404;-69
2022/09/21 06:50:02;;;;;;;;;28.00;28.00;;;;;;;;4919772;28;45432;-69
2022/09/21 06:52:27;;;;;;;;;26.33;23.67;;;;;;;;4919766;28;45416;-69
2022/09/21 06:54:53;;;;;;;;;22.33;20.67;;;;;;;;4919510;28;46363;-69
2022/09/21 06:57:18;;;;;;;;;24.00;22.00;;;;;;;;4919380;28;45286;-69
2022/09/21 06:59:43;;;;;;;;;20.33;20.00;;;;;;;;4919829;28;45763;-69
2022/09/21 07:02:08;;;;;;;;;22.33;22.33;;;;;;;;4906096;28;45398;-69
2022/09/21 07:04:33;;;;;;;;;22.33;19.00;;;;;;;;4922768;28;45441;-69
2022/09/21 07:07:00;;;;;;;;;29.33;25.67;;;;;;;;4923077;28;45293;-69
2022/09/21 07:09:25;;;;;;;;;20.67;18.00;;;;;;;;4923033;28;45394;-69
2022/09/21 07:11:50;;;;;;;;;26.67;22.00;;;;;;;;4922852;28;45490;-69
2022/09/21 07:14:15;;;;;;;;;29.67;23.67;;;;;;;;4922560;28;46425;-69
2022/09/21 07:16:42;;;;;;;;;26.67;21.33;;;;;;;;4922799;28;45496;-68
2022/09/21 07:19:07;;;;;;;;;24.33;19.67;;;;;;;;4922927;28;45384;-68
2022/09/21 07:21:32;;;;;;;;;22.67;19.67;;;;;;;;4923009;28;45312;-68
2022/09/21 07:23:58;;;;;;;;;23.33;22.00;;;;;;;;4922313;28;46462;-68
2022/09/21 07:26:23;;;;;;;;;22.33;19.33;;;;;;;;4922641;28;45512;-68
2022/09/21 07:28:48;;;;;;;;;24.67;21.33;;;;;;;;4922682;28;45370;-68
2022/09/21 07:31:15;;;;;;;;;20.33;19.67;;;;;;;;4922733;28;45477;-68
2022/09/21 07:33:42;;;;;;;;;22.67;20.00;;;;;;;;4922290;28;45684;-68
2022/09/21 07:36:11;;;;;;;;;30.67;22.33;;;;;;;;4922370;28;45318;-69
2022/09/21 07:38:38;;;;;;;;;21.67;20.00;;;;;;;;4922498;28;45362;-68
2022/09/21 07:41:04;;;;;;;;;14.00;14.00;;;;;;;;4922578;28;45480;-68
2022/09/21 07:43:29;;;;;;;;;22.33;20.67;;;;;;;;4922175;28;46181;-69
2022/09/21 07:45:54;;;;;;;;;25.33;20.00;;;;;;;;4922155;28;45269;-68
2022/09/21 07:48:21;;;;;;;;;19.00;17.67;;;;;;;;4922547;28;45390;-69
2022/09/21 07:50:47;;;;;;;;;16.00;15.33;;;;;;;;4922608;28;45485;-69
2022/09/21 07:53:15;;;;;;;;;17.33;15.67;;;;;;;;4922082;28;47385;-68
2022/09/21 07:55:40;;;;;;;;;13.33;13.33;;;;;;;;4922129;28;45411;-68
2022/09/21 08:00:50;;;;;;;;;18.00;17.67;;;;;;;;4922413;28;45323;-69
2022/09/21 08:03:15;;;;;;;;;22.00;20.33;;;;;;;;4921797;28;46483;-69
2022/09/21 08:05:40;;;;;;;;;18.33;15.00;;;;;;;;4922167;28;45241;-68
2022/09/21 08:08:05;;;;;;;;;18.00;13.67;;;;;;;;4922093;28;45316;-69
2022/09/21 08:10:31;;;;;;;;;15.00;13.00;;;;;;;;4922410;28;45304;-68
2022/09/21 08:12:57;;;;;;;;;14.33;13.67;;;;;;;;4920572;28;46298;-68
2022/09/21 08:15:22;;;;;;;;;13.00;12.67;;;;;;;;4921790;28;45430;-68
2022/09/21 08:17:47;;;;;;;;;10.33;10.33;;;;;;;;4922174;28;45434;-68
2022/09/21 08:20:13;;;;;;;;;15.00;11.00;;;;;;;;4921973;28;45294;-68
2022/09/21 08:22:38;;;;;;;;;11.00;9.67;;;;;;;;4921475;28;47172;-69
2022/09/21 08:25:04;;;;;;;;;11.00;10.67;;;;;;;;4921726;28;45384;-69
2022/09/21 08:27:29;;;;;;;;;13.33;11.67;;;;;;;;4921777;28;45338;-69
2022/09/21 08:29:54;;;;;;;;;9.67;9.67;;;;;;;;4922086;28;45277;-68
2022/09/21 08:32:19;;;;;;;;;13.33;10.00;;;;;;;;4921561;28;46376;-68
2022/09/21 08:34:45;;;;;;;;;16.00;12.00;;;;;;;;4921797;28;45342;-68
2022/09/21 08:37:10;;;;;;;;;15.33;11.67;;;;;;;;4921926;28;45401;-69
2022/09/21 08:39:36;;;;;;;;;11.00;9.33;;;;;;;;4921706;28;45452;-69
2022/09/21 08:42:10;;;;;;;;;9.33;9.00;;;;;;;;4921546;28;46676;-68
2022/09/21 08:44:35;;;;;;;;;8.33;7.00;;;;;;;;4921316;28;45459;-68
2022/09/21 08:47:08;;;;;;;;;10.00;9.00;;;;;;;;4921564;28;45396;-68
2022/09/21 08:49:35;;;;;;;;;7.33;7.33;;;;;;;;4921930;28;45317;-68
2022/09/21 08:52:11;;;;;;;;;4.00;4.00;;;;;;;;4921222;28;46501;-69
2022/09/21 08:54:45;;;;;;;;;6.00;5.33;;;;;;;;4921309;28;45231;-68
2022/09/21 08:57:12;;;;;;;;;8.67;5.67;;;;;;;;4921466;28;45365;-69
2022/09/21 08:59:41;;;;;;;;;9.67;9.67;;;;;;;;4921265;28;45491;-69
2022/09/21 09:02:22;;;;;;;;;10.67;8.33;;;;;;;;4920872;28;46804;-69
2022/09/21 09:05:06;;;;;;;;;13.00;7.67;;;;;;;;4921115;28;45268;-69
2022/09/21 09:07:57;;;;;;;;;5.50;4.50;;;;;;;;4921242;28;45167;-69
2022/09/21 09:10:40;;;;;;;;;12.67;8.67;;;;;;;;4921332;28;45348;-68
2022/09/21 09:13:05;;;;;;;;;10.67;7.33;;;;;;;;4921004;28;46063;-68
2022/09/21 09:15:45;;;;;;;;;14.00;11.67;;;;;;;;4920851;28;45479;-69
2022/09/21 09:18:13;;;;;;;;;11.00;8.67;;;;;;;;4921235;28;45337;-68
2022/09/21 09:20:41;;;;;;;;;6.00;5.00;;;;;;;;4921118;28;45328;-68
2022/09/21 09:23:09;;;;;;;;;3.00;3.00;;;;;;;;4920129;28;46497;-69
2022/09/21 09:25:41;;;;;;;;;5.00;4.00;;;;;;;;4920803;28;45455;-68
2022/09/21 09:28:21;;;;;;;;;3.50;3.50;;;;;;;;4920193;28;45381;-69
2022/09/21 09:30:50;;;;;;;;;6.00;6.00;;;;;;;;4920974;28;45468;-69
2022/09/21 09:33:19;;;;;;;;;8.33;3.67;;;;;;;;4920711;28;45464;-68
2022/09/21 09:35:48;;;;;;;;;5.00;4.00;;;;;;;;4920696;28;45366;-69
2022/09/21 09:38:35;;;;;;;;;4.00;3.00;;;;;;;;4920623;28;45364;-70
2022/09/21 09:41:04;;;;;;;;;2.67;2.00;;;;;;;;4920913;28;45436;-68
2022/09/21 09:43:35;;;;;;;;;3.33;3.33;;;;;;;;4920515;28;46088;-69
2022/09/21 09:46:06;;;;;;;;;4.00;4.00;;;;;;;;4920232;28;45456;-69
2022/09/21 09:48:31;;;;;;;;;4.00;4.00;;;;;;;;4920827;28;45302;-68
2022/09/21 09:50:57;;;;;;;;;3.00;2.00;;;;;;;;4920810;28;45266;-69
2022/09/21 09:53:25;;;;;;;;;3.00;2.00;;;;;;;;4920538;28;45609;-69
2022/09/21 09:55:51;;;;;;;;;4.33;4.33;;;;;;;;4920554;28;45417;-68
2022/09/21 09:58:19;;;;;;;;;3.33;2.67;;;;;;;;4920583;28;45339;-68
2022/09/21 10:00:47;;;;;;;;;5.00;3.00;;;;;;;;4920638;28;45395;-68
2022/09/21 10:03:17;;;;;;;;;1.75;1.25;;;;;;;;4920185;28;47364;-69
2022/09/21 10:05:42;;;;;;;;;4.00;2.00;;;;;;;;4920107;28;45329;-69
2022/09/21 10:08:26;;;;;;;;;8.00;5.00;;;;;;;;4920216;28;45353;-69
2022/09/21 10:10:51;;;;;;;;;4.33;3.00;;;;;;;;4920640;28;45425;-68
2022/09/21 10:13:26;;;;;;;;;1.67;1.00;;;;;;;;4920074;28;45505;-68
2022/09/21 10:15:53;;;;;;;;;4.67;2.00;;;;;;;;4920116;28;45394;-68
2022/09/21 10:18:37;;;;;;;;;2.00;2.00;;;;;;;;4920461;28;45437;-68
2022/09/21 10:21:05;;;;;;;;;2.00;2.00;;;;;;;;4920356;28;45437;-68
2022/09/21 10:23:31;;;;;;;;;2.00;1.00;;;;;;;;4919751;28;46689;-69
2022/09/21 10:25:59;;;;;;;;;2.33;2.00;;;;;;;;4919964;28;45393;-69
2022/09/21 10:28:25;;;;;;;;;1.00;1.00;;;;;;;;4920192;28;45231;-68
2022/09/21 10:31:05;;;;;;;;;3.00;3.00;;;;;;;;4920069;28;45249;-68
2022/09/21 10:33:31;;;;;;;;;2.00;2.00;;;;;;;;4919925;28;46340;-69
2022/09/21 10:35:56;;;;;;;;;4.33;2.00;;;;;;;;4919203;28;45304;-69
2022/09/21 10:38:26;;;;;;;;;3.00;3.00;;;;;;;;4920082;28;45326;-70
2022/09/21 10:40:52;;;;;;;;;1.00;1.00;;;;;;;;4920141;28;45296;-70
2022/09/21 10:43:33;;;;;;;;;3.67;2.00;;;;;;;;4919637;28;45458;-69
2022/09/21 10:45:59;;;;;;;;;4.67;3.00;;;;;;;;4919307;28;45516;-70
2022/09/21 10:48:26;;;;;;;;;1.00;1.00;;;;;;;;4919904;28;45262;-69
2022/09/21 10:50:52;;;;;;;;;0.33;0.33;;;;;;;;4920329;28;45361;-69
2022/09/21 10:53:23;;;;;;;;;1.00;1.00;;;;;;;;4919702;28;46556;-69
2022/09/21 10:56:11;;;;;;;;;3.00;2.00;;;;;;;;4919885;28;45190;-69
2022/09/21 10:58:38;;;;;;;;;1.00;1.00;;;;;;;;4919531;28;45358;-69
2022/09/21 11:01:11;;;;;;;;;1.00;1.00;;;;;;;;4919728;28;45467;-70
2022/09/21 11:03:55;;;;;;;;;2.67;1.00;;;;;;;;4919445;28;46229;-69
2022/09/21 11:06:23;;;;;;;;;1.00;1.00;;;;;;;;4919361;28;45383;-68
2022/09/21 11:08:49;;;;;;;;;0.00;0.00;;;;;;;;4919785;28;45405;-69
2022/09/21 11:11:17;;;;;;;;;3.00;2.00;;;;;;;;4919746;28;45456;-68
2022/09/21 11:13:55;;;;;;;;;1.00;1.00;;;;;;;;4919371;28;46530;-68
2022/09/21 11:16:27;;;;;;;;;2.00;2.00;;;;;;;;4919210;28;45461;-68
2022/09/21 11:18:55;;;;;;;;;4.00;2.00;;;;;;;;4919711;28;45308;-69
2022/09/21 11:21:39;;;;;;;;;2.67;2.00;;;;;;;;4917704;28;45528;-68
2022/09/21 11:24:12;;;;;;;;;2.50;1.00;;;;;;;;4917903;28;46622;-69
2022/09/21 11:26:40;;;;;;;;;1.00;1.00;;;;;;;;4911024;28;45746;-68
2022/09/21 11:29:22;;;;;;;;;2.33;2.00;;;;;;;;4918563;28;45733;-68
2022/09/21 11:31:47;;;;;;;;;2.00;2.00;;;;;;;;4918532;28;45388;-68
2022/09/21 11:34:21;;;;;;;;;0.75;0.75;;;;;;;;4917929;28;45515;-69
2022/09/21 11:36:56;;;;;;;;;1.25;1.25;;;;;;;;4918414;28;45535;-69
2022/09/21 11:39:27;;;;;;;;;2.00;1.00;;;;;;;;4918843;28;45277;-69
2022/09/21 11:41:52;;;;;;;;;2.00;2.00;;;;;;;;4918820;28;45324;-69
2022/09/21 11:44:37;;;;;;;;;1.00;1.00;;;;;;;;4918353;28;45464;-68
2022/09/21 11:47:08;;;;;;;;;2.00;1.00;;;;;;;;4920752;28;45245;-69
2022/09/21 11:49:45;;;;;;;;;2.00;2.00;;;;;;;;4922096;28;45296;-69
2022/09/21 11:52:31;;;;;;;;;4.25;1.00;;;;;;;;4922221;28;45228;-69
2022/09/21 11:55:10;;;;;;;;;1.75;1.75;;;;;;;;4922023;28;46527;-70
2022/09/21 11:57:41;;;;;;;;;3.00;0.50;;;;;;;;4922062;28;45329;-69
2022/09/21 12:00:20;;;;;;;;;1.00;1.00;;;;;;;;4921915;28;45355;-69
2022/09/21 12:02:50;;;;;;;;;1.00;1.00;;;;;;;;4921962;28;45442;-69
2022/09/21 12:05:30;;;;;;;;;1.75;1.00;;;;;;;;4921583;28;45526;-69
2022/09/21 12:08:14;;;;;;;;;1.75;0.25;;;;;;;;4921791;28;45653;-69
2022/09/21 12:10:48;;;;;;;;;1.00;1.00;;;;;;;;4922156;28;45289;-69
2022/09/21 12:13:22;;;;;;;;;2.00;2.00;;;;;;;;4922273;28;45465;-69
2022/09/21 12:15:54;;;;;;;;;2.00;1.00;;;;;;;;4921471;28;45360;-69
2022/09/21 12:18:27;;;;;;;;;1.33;1.33;;;;;;;;4921833;28;45330;-69
2022/09/21 12:21:10;;;;;;;;;5.00;4.00;;;;;;;;4922083;28;45282;-69
2022/09/21 12:23:41;;;;;;;;;1.00;0.75;;;;;;;;4934766;28;45340;-69
2022/09/21 12:26:07;;;;;;;;;3.00;1.00;;;;;;;;4940776;28;47469;-69
2022/09/21 12:28:39;;;;;;;;;3.75;1.00;;;;;;;;4940013;28;45341;-70
2022/09/21 12:31:13;;;;;;;;;1.00;1.00;;;;;;;;4940953;28;45257;-69
2022/09/21 12:33:45;;;;;;;;;1.00;1.00;;;;;;;;4941225;28;45206;-69
2022/09/21 12:36:26;;;;;;;;;2.67;1.00;;;;;;;;4940607;28;47387;-70
2022/09/21 12:39:00;;;;;;;;;2.00;2.00;;;;;;;;4940818;28;45451;-70
2022/09/21 12:41:39;;;;;;;;;2.00;0.00;;;;;;;;4941052;28;45504;-69
2022/09/21 12:44:25;;;;;;;;;0.00;0.00;;;;;;;;4941005;28;45388;-69
2022/09/21 12:47:08;;;;;;;;;0.50;0.50;;;;;;;;4939895;28;45550;-69
2022/09/21 12:49:35;;;;;;;;;1.25;0.50;;;;;;;;4940626;28;45365;-69
2022/09/21 12:52:05;;;;;;;;;1.00;1.00;;;;;;;;4940726;28;45325;-69
2022/09/21 12:54:30;;;;;;;;;1.00;1.00;;;;;;;;4940964;28;45301;-69
2022/09/21 12:57:09;;;;;;;;;1.00;1.00;;;;;;;;4940349;28;46524;-69
2022/09/21 12:59:44;;;;;;;;;2.00;1.00;;;;;;;;4939923;28;45311;-69
2022/09/21 13:02:32;;;;;;;;;1.00;1.00;;;;;;;;4940180;28;45334;-69
2022/09/21 13:05:16;;;;;;;;;0.33;0.33;;;;;;;;4862402;29;45401;-69
2022/09/21 13:08:03;;;;;;;;;2.00;1.00;;;;;;;;4862150;29;46363;-69
2022/09/21 13:10:30;;;;;;;;;1.50;1.50;;;;;;;;4862153;29;45447;-70
2022/09/21 13:13:01;;;;;;;;;1.67;1.00;;;;;;;;4862438;29;45473;-69
2022/09/21 13:15:30;;;;;;;;;1.00;1.00;;;;;;;;4862255;29;45431;-69
2022/09/21 13:17:57;;;;;;;;;2.50;0.75;;;;;;;;4862081;29;47659;-69
2022/09/21 13:20:22;;;;;;;;;1.00;0.50;;;;;;;;4862043;29;45451;-69
2022/09/21 13:22:48;;;;;;;;;1.00;1.00;;;;;;;;4861970;29;46029;-69
2022/09/21 13:25:19;;;;;;;;;0.25;0.25;;;;;;;;4862330;29;45526;-69
2022/09/21 13:28:03;;;;;;;;;1.00;0.75;;;;;;;;4862142;29;46167;-68
2022/09/21 13:30:31;;;;;;;;;1.00;1.00;;;;;;;;4861792;29;45453;-68
2022/09/21 13:32:56;;;;;;;;;2.00;1.00;;;;;;;;4861951;29;45440;-68
2022/09/21 13:35:41;;;;;;;;;0.75;0.75;;;;;;;;4862055;29;45483;-69
2022/09/21 13:38:24;;;;;;;;;2.00;2.00;;;;;;;;4861809;29;45641;-69
2022/09/21 13:41:00;;;;;;;;;0.00;0.00;;;;;;;;4862829;28;45329;-69
2022/09/21 13:43:46;;;;;;;;;1.00;1.00;;;;;;;;4939772;28;45513;-69
2022/09/21 13:46:29;;;;;;;;;1.00;1.00;;;;;;;;4939657;28;45226;-69
2022/09/21 13:48:55;;;;;;;;;1.00;1.00;;;;;;;;4939582;28;46236;-69
2022/09/21 13:51:20;;;;;;;;;2.00;2.00;;;;;;;;4939974;28;45332;-69
2022/09/21 13:53:45;;;;;;;;;1.00;1.00;;;;;;;;4939826;28;45237;-69
2022/09/21 13:56:19;;;;;;;;;2.00;2.00;;;;;;;;4939660;28;45806;-69
2022/09/21 13:58:46;;;;;;;;;2.50;1.00;;;;;;;;4939696;28;46419;-69
2022/09/21 14:01:16;;;;;;;;;5.00;2.00;;;;;;;;4939318;28;45378;-69
2022/09/21 14:04:01;;;;;;;;;1.00;1.00;;;;;;;;4939617;28;45338;-69
2022/09/21 14:06:33;;;;;;;;;1.67;1.67;;;;;;;;4939604;28;45223;-69
2022/09/21 14:09:04;;;;;;;;;1.00;1.00;;;;;;;;4939233;28;46298;-68
2022/09/21 14:11:34;;;;;;;;;1.67;1.00;;;;;;;;4939292;28;45293;-69
2022/09/21 14:14:02;;;;;;;;;3.00;3.00;;;;;;;;4939103;28;45392;-69
2022/09/21 14:16:28;;;;;;;;;2.75;1.00;;;;;;;;4939424;28;45777;-69
2022/09/21 14:18:53;;;;;;;;;1.00;1.00;;;;;;;;4939331;28;46516;-69
2022/09/21 14:21:19;;;;;;;;;2.00;2.00;;;;;;;;4939451;28;45253;-69
2022/09/21 14:24:03;;;;;;;;;2.00;1.00;;;;;;;;4939154;28;45329;-69
2022/09/21 14:26:46;;;;;;;;;2.00;1.00;;;;;;;;4939460;28;45317;-69
2022/09/21 14:29:43;;;;;;;;;2.00;1.00;;;;;;;;4939014;28;46509;-69
2022/09/21 14:32:22;;;;;;;;;1.00;1.00;;;;;;;;4860776;29;45558;-69
2022/09/21 14:34:49;;;;;;;;;2.67;2.00;;;;;;;;4861204;29;45794;-69
2022/09/21 14:37:29;;;;;;;;;1.00;1.00;;;;;;;;4861297;29;45480;-69
2022/09/21 14:39:55;;;;;;;;;2.00;2.00;;;;;;;;4861116;29;45506;-69
2022/09/21 14:42:26;;;;;;;;;1.00;1.00;;;;;;;;4860970;29;45307;-69
2022/09/21 14:44:54;;;;;;;;;2.67;2.00;;;;;;;;4860664;29;45499;-69
2022/09/21 14:47:31;;;;;;;;;1.00;1.00;;;;;;;;4861109;29;45474;-69
2022/09/21 14:49:57;;;;;;;;;2.25;1.00;;;;;;;;4861107;29;46710;-68